Latest Weather Observations for Brisbane Airport

IDQ60801

Issued at 3:32 pm EST Thursday 2 July 2015 (issued every 30 minutes, with the page automatically refreshed every 10 minutes)

About weather observations | Map of weather stations | Latest weather observations for QLD | Other Formats
Station Details ID: 040842 Name: BRISBANE AERO Lat: -27.39 Lon: 153.13 Height: 4.51 m
Data from the previous 72 hours. | See also: Recent months at Brisbane Airport
Date/Time
EST
Temp
°C
App
Temp
°C
Dew
Point
Rel
Hum
%
Delta-T
°C
Wind Press
QNH
hPa
Press
MSL
hPa
Rain
since 9 am
mm
Dir
 
Spd
km/h
Gust
km/h
Spd
kts
Gust
kts
02/03:30pm 17.9 11.8 0.2 30 7.7 WSW 22 32 12 17 1018.0 - 0.0
02/03:00pm 18.4 12.5 3.7 37 6.9 W 24 32 13 17 1018.0 1018.0 0.0
02/02:30pm 18.1 11.5 4.4 40 6.5 WSW 28 33 15 18 1018.1 - 0.0
02/02:00pm 18.7 13.1 5.3 41 6.5 W 24 30 13 16 1018.2 - 0.0
02/01:30pm 18.7 12.7 5.3 41 6.5 W 26 30 14 16 1018.2 - 0.0
02/01:00pm 19.6 14.0 5.5 39 6.9 W 24 30 13 16 1018.6 - 0.0
02/12:30pm 19.3 14.2 5.9 41 6.6 W 22 28 12 15 1019.2 - 0.0
02/12:00pm 19.5 14.8 7.8 46 6.0 W 22 32 12 17 1019.7 1019.7 0.0
02/11:30am 19.3 15.1 9.7 53 5.1 W 22 30 12 16 1020.4 - 0.0
02/11:00am 18.5 15.3 9.8 57 4.6 SW 17 26 9 14 1020.9 - 0.0
02/10:30am 17.6 13.6 9.1 57 4.4 SW 20 28 11 15 1021.5 - 0.0
02/10:00am 17.4 12.7 9.3 59 4.2 SW 24 30 13 16 1021.7 - 0.0
02/09:30am 17.0 12.0 9.7 62 3.8 SW 26 32 14 17 1022.4 - 0.0
02/09:00am 15.8 11.2 9.8 67 3.1 WSW 24 30 13 16 1022.0 1022.0 0.0
02/08:30am 14.9 10.7 9.9 72 2.6 SW 22 28 12 15 1021.5 - 0.0
02/08:00am 14.0 11.2 10.1 77 2.0 SW 15 20 8 11 1021.5 - 0.0
02/07:30am 12.1 9.8 10.3 89 0.9 WSW 13 17 7 9 1021.3 - 0.0
02/07:00am 11.3 9.0 9.1 86 1.1 SW 11 13 6 7 1021.3 - 0.0
02/06:30am 11.4 9.5 9.0 85 1.2 WSW 9 13 5 7 1021.0 - 0.0
02/06:00am 10.9 8.3 9.3 90 0.8 W 13 17 7 9 1020.6 1020.6 0.0
02/05:30am 11.1 9.9 9.5 90 0.8 S 6 11 3 6 1020.5 - 0.0
02/05:00am 11.9 10.2 9.9 87 1.0 S 9 11 5 6 1020.4 - 0.0
02/04:30am 11.5 9.1 10.1 91 0.7 SSW 13 17 7 9 1020.4 - 0.0
02/04:00am 12.2 9.8 10.0 86 1.1 SW 13 17 7 9 1020.5 - 0.0
02/03:30am 12.0 9.9 9.6 85 1.2 SW 11 13 6 7 1020.8 - 0.0
02/03:00am 12.3 10.6 9.9 85 1.2 SW 9 13 5 7 1020.9 1020.9 0.0
02/02:30am 12.1 10.0 9.9 86 1.1 SW 11 13 6 7 1020.9 - 0.0
02/02:00am 12.0 10.0 10.0 87 1.0 WSW 11 15 6 8 1020.8 - 0.0
02/01:30am 12.7 10.8 10.6 87 1.1 WNW 11 13 6 7 1021.3 - 0.0
02/01:00am 12.5 10.9 10.2 86 1.2 W 9 13 5 7 1021.3 - 0.0
02/12:30am 12.7 12.9 10.4 86 1.2 CALM 0 7 0 4 1021.4 - 0.0
02/12:00am 12.5 10.8 10.0 85 1.3 NW 9 13 5 7 1021.6 1021.6 0.0
 
Date/Time
EST
Temp
°C
App
Temp
°C
Dew
Point
Rel
Hum
%
Delta-T
°C
Wind Press
QNH
hPa
Press
MSL
hPa
Rain
since 9 am
mm
Dir
 
Spd
km/h
Gust
km/h
Spd
kts
Gust
kts
01/11:30pm 13.1 13.3 10.6 85 1.3 CALM 0 7 0 4 1021.8 - 0.0
01/11:00pm 13.5 12.1 10.8 84 1.4 NW 9 11 5 6 1021.9 - 0.0
01/10:30pm 14.1 12.3 10.7 80 1.8 WNW 11 15 6 8 1022.2 - 0.0
01/10:00pm 14.1 12.4 11.1 82 1.6 NW 11 13 6 7 1022.3 - 0.0
01/09:30pm 14.6 13.4 11.6 82 1.6 NW 9 11 5 6 1022.4 - 0.0
01/09:00pm 14.7 13.7 11.1 79 1.9 WNW 7 9 4 5 1022.6 1022.6 0.0
01/08:30pm 15.4 13.8 11.5 77 2.1 WSW 11 13 6 7 1022.1 - 0.0
01/08:00pm 15.9 13.8 11.2 73 2.5 WSW 13 17 7 9 1021.8 - 0.0
01/07:30pm 17.0 15.6 12.1 73 2.7 W 11 17 6 9 1021.9 - 0.0
01/07:00pm 17.0 16.8 14.6 86 1.4 WNW 9 11 5 6 1021.6 - 0.0
01/06:30pm 16.2 17.5 14.1 87 1.2 CALM 0 0 0 0 1021.4 - 0.0
01/06:00pm 17.3 17.0 14.5 83 1.6 ENE 9 11 5 6 1020.8 1020.8 0.0
01/05:30pm 15.8 16.0 14.6 93 0.7 NE 7 9 4 5 1020.7 - 0.0
01/05:00pm 17.7 17.7 15.3 86 1.4 NNE 9 9 5 5 1020.5 - 0.0
01/04:30pm 19.4 18.9 14.8 75 2.7 NNE 11 13 6 7 1020.4 - 0.0
01/04:00pm 20.1 19.1 14.6 70 3.2 NNE 13 13 7 7 1020.5 - 0.0
01/03:30pm 20.8 20.2 14.6 67 3.6 NNE 11 13 6 7 1020.5 - 0.0
01/03:00pm 20.8 20.1 14.4 67 3.7 NNE 11 15 6 8 1020.6 1020.6 0.0
01/02:30pm 21.3 20.5 15.0 67 3.7 NE 13 17 7 9 1020.7 - 0.0
01/02:00pm 22.0 20.6 14.5 62 4.4 NNE 15 17 8 9 1020.8 - 0.0
01/01:30pm 22.7 23.9 13.7 56 5.2 CALM 0 7 0 4 1021.0 - 0.0
01/01:00pm 21.7 21.5 13.5 59 4.7 S 7 15 4 8 1021.4 - 0.0
01/12:30pm 21.1 20.3 12.8 59 4.7 S 9 15 5 8 1022.0 - 0.0
01/12:00pm 20.7 19.0 13.5 63 4.1 SSW 15 19 8 10 1022.7 1022.7 0.0
01/11:30am 20.0 18.3 13.7 67 3.6 SSW 15 24 8 13 1023.5 - 0.0
01/11:00am 18.9 17.1 13.4 70 3.1 SSW 15 19 8 10 1023.9 - 0.0
01/10:30am 19.1 17.5 13.8 71 3.0 SSW 15 20 8 11 1024.2 - 0.0
01/10:00am 18.0 16.4 13.8 76 2.4 SSW 15 19 8 10 1024.4 - 0.0
01/09:30am 16.9 15.7 14.1 83 1.6 SSW 13 17 7 9 1024.6 - 0.0
01/09:00am 15.9 15.1 13.9 88 1.1 SW 11 13 6 7 1024.5 1024.4 0.0
01/08:30am 14.9 13.5 13.5 91 0.8 SSW 13 17 7 9 1024.5 - 0.0
01/08:00am 14.4 14.4 13.5 94 0.5 S 6 9 3 5 1024.2 - 0.0
01/07:30am 14.0 12.5 13.1 94 0.5 SSW 13 15 7 8 1024.1 - 0.0
01/07:00am 13.1 11.8 12.5 96 0.3 SSW 11 15 6 8 1023.7 - 0.0
01/06:30am 12.6 11.5 12.0 96 0.3 SSW 9 11 5 6 1023.7 - 0.0
01/06:00am 12.7 12.0 11.9 95 0.4 SSW 7 11 4 6 1023.5 1023.4 0.0
01/05:30am 12.7 11.6 12.1 96 0.3 SSW 9 11 5 6 1023.3 - 0.0
01/05:00am 12.1 10.2 11.7 97 0.2 SSW 13 13 7 7 1023.3 - 0.0
01/04:30am 12.7 11.2 11.9 95 0.4 SSW 11 13 6 7 1023.0 - 0.0
01/04:00am 12.1 10.2 11.7 97 0.2 SSW 13 15 7 8 1023.1 - 0.0
01/03:30am 12.5 10.7 12.1 97 0.2 SSW 13 15 7 8 1023.1 - 0.0
01/03:00am 13.1 11.0 12.4 95 0.4 SSW 15 17 8 9 1023.7 1023.6 0.0
01/02:30am 12.7 11.3 12.3 97 0.2 SSW 11 13 6 7 1023.9 - 0.0
01/02:00am 13.0 11.7 12.4 96 0.3 SSW 11 15 6 8 1024.2 - 0.0
01/01:30am 12.7 11.7 12.3 97 0.2 SSW 9 11 5 6 1024.5 - 0.0
01/01:00am 13.9 13.4 12.8 93 0.6 SSW 7 9 4 5 1024.8 - 0.0
01/12:30am 13.7 14.2 12.8 94 0.5 WSW 2 6 1 3 1024.9 - 0.0
01/12:00am 14.1 14.0 13.2 94 0.5 WNW 6 9 3 5 1025.0 1024.9 0.0
 
Date/Time
EST
Temp
°C
App
Temp
°C
Dew
Point
Rel
Hum
%
Delta-T
°C
Wind Press
QNH
hPa
Press
MSL
hPa
Rain
since 9 am
mm
Dir
 
Spd
km/h
Gust
km/h
Spd
kts
Gust
kts
30/11:30pm 14.4 15.1 13.5 94 0.5 SW 2 7 1 4 1025.0 - 0.0
30/11:00pm 14.1 13.8 13.2 94 0.5 SSW 7 9 4 5 1025.0 - 0.0
30/10:30pm 14.7 14.5 13.6 93 0.6 SW 7 9 4 5 1025.3 - 0.0
30/10:00pm 15.1 15.9 13.7 91 0.8 SSW 2 9 1 5 1025.4 - 0.0
30/09:30pm 15.1 15.2 14.0 93 0.6 SW 6 7 3 4 1025.6 - 0.0
30/09:00pm 15.2 16.5 14.1 93 0.6 CALM 0 0 0 0 1025.5 1025.4 0.0
30/08:30pm 16.2 17.6 14.4 89 1.0 CALM 0 0 0 0 1025.4 - 0.0
30/08:00pm 17.0 17.1 14.4 85 1.5 SSE 7 9 4 5 1025.3 - 0.0
30/07:30pm 17.3 17.6 14.9 86 1.4 SE 7 9 4 5 1024.9 - 0.0
30/07:00pm 17.4 17.8 15.3 87 1.2 ESE 7 9 4 5 1024.9 - 0.0
30/06:30pm 17.6 18.0 14.8 84 1.6 E 6 7 3 4 1024.8 - 0.0
30/06:00pm 17.6 17.8 14.8 84 1.6 SE 7 9 4 5 1024.5 1024.4 0.0
30/05:30pm 18.1 18.5 14.8 81 1.9 ESE 6 7 3 4 1024.3 - 0.0
30/05:00pm 18.3 19.9 14.8 80 2.0 CALM 0 7 0 4 1024.2 - 0.0
30/04:30pm 19.0 20.4 14.3 74 2.7 CALM 0 0 0 0 1024.1 - 0.0
30/04:00pm 19.8 19.6 13.5 67 3.6 NE 7 9 4 5 1024.1 - 0.0
30/03:30pm 20.6 20.0 13.4 63 4.1 ENE 9 11 5 6 1024.0 - 0.0
30/03:00pm 20.7 19.8 12.5 59 4.6 E 9 15 5 8 1024.1 1024.0 0.0
30/02:30pm 21.2 19.9 12.5 57 4.9 ENE 11 17 6 9 1024.1 - 0.0
30/02:00pm 21.3 20.1 11.5 53 5.4 E 9 13 5 7 1024.4 - 0.0
30/01:30pm 21.8 21.0 13.0 57 5.0 ESE 9 13 5 7 1024.7 - 0.0
30/01:00pm 21.2 19.9 12.5 57 4.9 ESE 11 15 6 8 1025.1 - 0.0
30/12:30pm 20.8 19.6 12.8 60 4.5 SE 11 15 6 8 1025.4 - 0.0
30/12:00pm 21.1 20.1 13.4 61 4.4 SE 11 19 6 10 1025.8 1025.7 0.0
30/11:30am 20.7 20.4 14.3 66 3.7 SSE 9 13 5 7 1026.2 - 0.0
30/11:00am 20.1 18.7 14.4 69 3.3 S 15 19 8 10 1026.7 - 0.0
30/10:30am 19.2 17.6 14.9 76 2.5 SSW 17 22 9 12 1027.2 - 0.0
30/10:00am 18.8 17.2 15.0 78 2.2 SW 17 24 9 13 1028.0 - 0.0
30/09:30am 17.9 17.0 14.8 82 1.8 SSW 13 15 7 8 1027.8 - 0.0
30/09:00am 16.7 14.7 13.9 83 1.6 SSW 17 20 9 11 1028.0 1027.9 9.8
30/08:30am 16.3 13.8 14.2 87 1.2 SSW 20 26 11 14 1028.0 - 9.8
30/08:00am 15.6 13.3 14.0 90 0.9 SSW 19 24 10 13 1027.9 - 9.8
30/07:30am 14.9 12.8 13.6 92 0.7 SSW 17 26 9 14 1027.6 - 9.8
30/07:00am 14.8 13.0 13.2 90 0.9 SSW 15 19 8 10 1027.1 - 9.8
30/06:30am 14.5 13.5 13.4 93 0.6 S 11 13 6 7 1027.0 - 9.8
30/06:00am 14.2 12.8 13.5 96 0.4 SSW 13 15 7 8 1027.1 1027.0 9.8
30/05:30am 14.2 12.9 13.7 97 0.3 SSW 13 17 7 9 1027.1 - 9.8
30/05:00am 13.9 12.2 13.5 97 0.2 SSW 15 19 8 10 1027.2 - 9.8
30/04:30am 14.3 13.1 13.9 97 0.2 SW 13 13 7 7 1027.2 - 9.8
30/04:00am 14.4 13.6 14.0 97 0.2 SSW 11 15 6 8 1027.2 - 9.8
30/03:30am 14.2 13.3 13.8 97 0.2 SSW 11 13 6 7 1027.4 - 9.8
30/03:00am 14.4 13.6 14.0 97 0.2 SW 11 11 6 6 1027.7 1027.6 9.8
30/02:30am 14.7 14.0 14.2 97 0.3 WSW 11 13 6 7 1027.8 - 9.8
30/02:00am 14.8 14.1 14.3 97 0.3 WSW 11 15 6 8 1027.8 - 9.8
30/01:30am 15.2 15.3 14.5 96 0.4 SW 7 9 4 5 1028.0 - 9.8
30/01:00am 15.5 15.0 14.8 96 0.4 SSW 11 15 6 8 1028.3 - 9.8
30/12:30am 15.5 15.0 15.0 97 0.3 SSW 11 15 6 8 1028.2 - 9.8
30/12:00am 15.5 15.4 15.0 97 0.3 SSW 9 13 5 7 1028.3 1028.2 9.6
 
Date/Time
EST
Temp
°C
App
Temp
°C
Dew
Point
Rel
Hum
%
Delta-T
°C
Wind Press
QNH
hPa
Press
MSL
hPa
Rain
since 9 am
mm
Dir
 
Spd
km/h
Gust
km/h
Spd
kts
Gust
kts
29/11:30pm 15.4 14.5 14.9 97 0.3 SSW 13 15 7 8 1028.5 - 9.6
29/11:00pm 15.4 14.9 14.9 97 0.3 S 11 15 6 8 1028.8 - 9.6
29/10:30pm 15.5 14.7 15.0 97 0.3 SSW 13 17 7 9 1029.3 - 9.4
29/10:00pm 15.3 14.8 14.8 97 0.3 SSW 11 15 6 8 1029.4 - 9.4
29/09:30pm 15.4 15.3 14.9 97 0.3 S 9 15 5 8 1029.5 - 9.2
29/09:00pm 15.6 15.1 14.9 96 0.4 S 11 19 6 10 1029.7 1029.6 8.8
29/08:43pm 15.8 14.6 15.1 96 0.4 S 15 20 8 11 1029.7 - 8.4
29/08:30pm 15.8 15.1 15.3 97 0.3 S 13 19 7 10 1029.7 - 8.2
29/08:00pm 15.8 15.1 15.3 97 0.3 S 13 19 7 10 1029.4 - 7.2
29/07:30pm 16.1 15.0 15.4 96 0.4 S 15 28 8 15 1029.3 - 1.8
29/07:00pm 17.0 15.7 14.9 87 1.2 SSW 15 19 8 10 1028.7 - 1.2
29/06:30pm 17.1 16.4 15.4 90 1.0 SSW 13 19 7 10 1028.5 - 1.2
29/06:00pm 17.2 16.7 14.9 86 1.3 SSW 11 15 6 8 1028.0 1027.9 1.2
29/05:30pm 17.7 17.6 13.8 78 2.2 SSE 7 11 4 6 1027.6 - 1.2
29/05:00pm 17.6 17.1 15.0 85 1.5 SSW 11 15 6 8 1027.5 - 1.2
29/04:30pm 17.7 17.8 15.5 87 1.3 SSE 9 15 5 8 1027.7 - 1.2
29/04:00pm 18.2 17.2 14.7 80 2.0 SSE 13 19 7 10 1027.8 - 1.2

Other Formats:

Comma delimited format used in spreadsheet applications
http://www.bom.gov.au/fwo/IDQ60801/IDQ60801.94578.axf

JavaScript Object Notation format (JSON) in row-major order
http://www.bom.gov.au/fwo/IDQ60801/IDQ60801.94578.json